createdAt,value
2018-04-26T00:01:22.416Z,14.70
2018-04-26T00:03:51.530Z,14.13
2018-04-26T00:06:20.690Z,14.60
2018-04-26T00:08:49.821Z,15.20
2018-04-26T00:11:18.936Z,14.33
2018-04-26T00:13:48.057Z,14.67
2018-04-26T00:16:17.244Z,14.30
2018-04-26T00:18:46.362Z,15.10
2018-04-26T00:21:15.490Z,14.17
2018-04-26T00:23:44.740Z,16.37
2018-04-26T00:26:13.805Z,15.83
2018-04-26T00:28:42.941Z,16.27
2018-04-26T00:31:12.067Z,15.60
2018-04-26T00:33:41.208Z,15.43
2018-04-26T00:36:10.347Z,15.40
2018-04-26T00:38:39.489Z,14.93
2018-04-26T00:41:08.653Z,15.00
2018-04-26T00:43:37.844Z,16.20
2018-04-26T00:46:06.952Z,15.70
2018-04-26T00:48:36.084Z,15.30
2018-04-26T00:51:05.228Z,15.37
2018-04-26T00:53:34.357Z,15.47
2018-04-26T00:56:03.481Z,16.77
2018-04-26T00:58:32.649Z,16.50
2018-04-26T01:01:01.772Z,18.20
2018-04-26T01:03:30.914Z,17.40
2018-04-26T01:06:00.097Z,18.77
2018-04-26T01:08:29.232Z,17.63
2018-04-26T01:10:58.368Z,17.87
2018-04-26T01:13:27.515Z,17.17
2018-04-26T01:15:56.665Z,17.60
2018-04-26T01:18:25.809Z,18.13
2018-04-26T01:20:54.992Z,17.50
2018-04-26T01:23:24.148Z,16.03
2018-04-26T01:25:53.291Z,17.27
2018-04-26T01:28:22.426Z,17.13
2018-04-26T01:30:51.578Z,15.83
2018-04-26T01:33:20.723Z,16.40
2018-04-26T01:35:49.860Z,16.20
2018-04-26T01:38:18.996Z,18.13
2018-04-26T01:40:48.165Z,16.00
2018-04-26T01:43:17.292Z,17.90
2018-04-26T01:45:46.450Z,17.93
2018-04-26T01:48:15.621Z,17.77
2018-04-26T01:50:44.768Z,17.10
2018-04-26T01:53:13.914Z,16.93
2018-04-26T01:55:43.033Z,18.37
2018-04-26T01:58:12.181Z,16.17
2018-04-26T02:00:41.304Z,16.30
2018-04-26T02:03:10.412Z,17.37
2018-04-26T02:05:39.579Z,16.53
2018-04-26T02:08:08.742Z,15.70
2018-04-26T02:10:37.916Z,14.93
2018-04-26T02:13:07.055Z,15.63
2018-04-26T02:15:36.183Z,15.00
2018-04-26T02:18:05.337Z,15.93
2018-04-26T02:20:34.475Z,17.97
2018-04-26T02:23:03.625Z,20.27
2018-04-26T02:25:32.732Z,21.57
2018-04-26T02:28:01.889Z,28.83
2018-04-26T02:30:31.032Z,36.93
2018-04-26T02:33:00.184Z,47.37
2018-04-26T02:35:29.298Z,51.97
2018-04-26T02:37:58.471Z,48.17
2018-04-26T02:40:27.620Z,53.17
2018-04-26T02:42:56.786Z,53.13
2018-04-26T02:45:25.926Z,49.00
2018-04-26T02:47:55.037Z,52.03
2018-04-26T02:50:24.185Z,55.63
2018-04-26T02:52:53.312Z,54.37
2018-04-26T02:55:22.486Z,55.03
2018-04-26T02:57:51.598Z,53.90
2018-04-26T03:00:20.763Z,51.13
2018-04-26T03:02:49.915Z,56.70
2018-04-26T03:05:19.059Z,46.53
2018-04-26T03:07:48.228Z,35.23
2018-04-26T03:10:17.370Z,31.80
2018-04-26T03:12:46.511Z,30.40
2018-04-26T03:15:15.685Z,32.33
2018-04-26T03:17:44.808Z,27.80
2018-04-26T03:20:13.932Z,26.30
2018-04-26T03:22:43.120Z,18.50
2018-04-26T03:25:12.232Z,16.73
2018-04-26T03:27:41.369Z,15.60
2018-04-26T03:30:10.596Z,13.30
2018-04-26T03:32:39.747Z,16.37
2018-04-26T03:35:08.864Z,14.23
2018-04-26T03:37:38.721Z,14.40
2018-04-26T03:40:07.840Z,13.10
2018-04-26T03:42:36.981Z,14.33
2018-04-26T03:45:06.125Z,13.80
2018-04-26T03:47:35.249Z,14.17
2018-04-26T03:50:04.425Z,13.93
2018-04-26T03:52:33.562Z,13.60
2018-04-26T03:55:02.694Z,13.70
2018-04-26T03:57:31.860Z,13.70
2018-04-26T04:00:06.910Z,13.80
2018-04-26T04:02:41.898Z,14.67
2018-04-26T04:05:14.780Z,13.23
2018-04-26T04:07:43.941Z,13.07
2018-04-26T04:10:13.052Z,13.50
2018-04-26T04:12:42.193Z,14.60
2018-04-26T04:15:11.362Z,15.33
2018-04-26T04:17:40.487Z,15.90
2018-04-26T04:20:09.602Z,17.17
2018-04-26T04:22:38.762Z,17.20
2018-04-26T04:25:07.916Z,19.57
2018-04-26T04:27:37.087Z,19.00
2018-04-26T04:30:06.213Z,19.27
2018-04-26T04:32:35.336Z,17.93
2018-04-26T04:35:04.524Z,18.20
2018-04-26T04:37:33.808Z,16.63
2018-04-26T04:40:02.877Z,16.80
2018-04-26T04:42:32.016Z,17.00
2018-04-26T04:45:01.192Z,16.40
2018-04-26T04:47:30.317Z,16.53
2018-04-26T04:49:59.511Z,15.53
2018-04-26T04:52:28.653Z,16.73
2018-04-26T04:54:57.816Z,15.93
2018-04-26T04:57:27.014Z,16.80
2018-04-26T04:59:56.492Z,16.43
2018-04-26T05:02:25.636Z,15.57
2018-04-26T05:04:54.781Z,15.73
2018-04-26T05:07:24.071Z,15.70
2018-04-26T05:09:53.188Z,16.43
2018-04-26T05:12:22.312Z,16.60
2018-04-26T05:14:51.453Z,15.67
2018-04-26T05:17:20.611Z,15.07
2018-04-26T05:19:49.831Z,16.07
2018-04-26T05:22:18.899Z,16.20
2018-04-26T05:24:48.021Z,18.23
2018-04-26T05:27:17.167Z,18.73
2018-04-26T05:29:46.349Z,17.60
2018-04-26T05:32:15.482Z,16.17
2018-04-26T05:34:44.602Z,15.80
2018-04-26T05:37:13.774Z,15.97
2018-04-26T05:39:42.938Z,16.97
2018-04-26T05:42:12.073Z,13.40
2018-04-26T05:44:41.248Z,11.90
2018-04-26T05:47:10.389Z,14.40
2018-04-26T05:49:39.552Z,39.37
2018-04-26T05:52:08.814Z,44.13
2018-04-26T05:54:37.957Z,19.03
2018-04-26T05:57:07.092Z,13.73
2018-04-26T05:59:36.300Z,13.13
2018-04-26T06:02:05.698Z,12.90
2018-04-26T06:04:34.862Z,12.90
2018-04-26T06:07:04.034Z,11.90
2018-04-26T06:09:33.152Z,13.50
2018-04-26T06:12:02.305Z,18.40
2018-04-26T06:14:31.459Z,23.97
2018-04-26T06:17:00.670Z,16.20
2018-04-26T06:19:29.775Z,14.87
2018-04-26T06:21:58.940Z,11.90
2018-04-26T06:24:28.096Z,11.10
2018-04-26T06:26:57.235Z,9.87
2018-04-26T06:29:26.360Z,11.73
2018-04-26T06:31:55.554Z,11.50
2018-04-26T06:34:24.687Z,12.87
2018-04-26T06:36:53.881Z,11.97
2018-04-26T06:39:23.072Z,12.53
2018-04-26T06:41:52.225Z,12.00
2018-04-26T06:44:21.394Z,12.73
2018-04-26T06:46:50.904Z,14.00
2018-04-26T06:49:20.199Z,17.20
2018-04-26T06:51:49.470Z,14.50
2018-04-26T06:54:18.672Z,14.97
2018-04-26T06:56:47.808Z,15.50
2018-04-26T06:59:17.008Z,14.90
2018-04-26T07:01:46.155Z,16.80
2018-04-26T07:04:15.305Z,13.70
2018-04-26T07:06:44.519Z,14.20
2018-04-26T07:09:13.656Z,14.20
2018-04-26T07:11:42.821Z,17.30
2018-04-26T07:14:11.943Z,12.90
2018-04-26T07:16:41.064Z,15.53
2018-04-26T07:19:10.245Z,14.53
2018-04-26T07:21:39.381Z,12.60
2018-04-26T07:24:08.560Z,12.63
2018-04-26T07:26:37.725Z,10.20
2018-04-26T07:29:07.570Z,10.33
2018-04-26T07:31:36.764Z,10.63
2018-04-26T07:34:05.891Z,9.10
2018-04-26T07:36:35.025Z,9.60
2018-04-26T07:39:04.171Z,9.70
2018-04-26T07:41:33.314Z,13.10
2018-04-26T07:44:02.497Z,9.83
2018-04-26T07:46:31.656Z,9.23
2018-04-26T07:49:00.806Z,13.50
2018-04-26T07:51:29.962Z,19.47
2018-04-26T07:53:59.077Z,9.20
2018-04-26T07:56:28.216Z,13.87
2018-04-26T07:58:57.741Z,12.70
2018-04-26T08:01:26.965Z,19.03
2018-04-26T08:03:56.052Z,10.33
2018-04-26T08:06:25.224Z,68.43
2018-04-26T08:08:54.353Z,9.40
2018-04-26T08:11:23.500Z,10.70
2018-04-26T08:13:52.675Z,13.53
2018-04-26T08:16:21.807Z,11.40
2018-04-26T08:18:50.937Z,10.30
2018-04-26T08:21:20.101Z,12.63
2018-04-26T08:23:49.236Z,9.93
2018-04-26T08:26:18.368Z,10.50
2018-04-26T08:28:47.526Z,9.83
2018-04-26T08:31:16.688Z,12.30
2018-04-26T08:33:45.855Z,9.70
2018-04-26T08:36:14.992Z,25.07
2018-04-26T08:38:44.118Z,13.00
2018-04-26T08:41:13.308Z,9.97
2018-04-26T08:43:42.412Z,9.90
2018-04-26T08:46:11.545Z,13.27
2018-04-26T08:48:40.704Z,10.67
2018-04-26T08:51:09.820Z,9.83
2018-04-26T08:53:38.980Z,13.23
2018-04-26T08:56:08.149Z,10.83
2018-04-26T08:58:37.300Z,11.73
2018-04-26T09:01:06.415Z,10.27
2018-04-26T09:03:35.976Z,23.80
2018-04-26T09:06:05.112Z,12.20
2018-04-26T09:08:34.252Z,12.13
2018-04-26T09:11:03.384Z,10.60
2018-04-26T09:13:32.533Z,10.50
2018-04-26T09:16:01.677Z,11.50
2018-04-26T09:18:30.839Z,12.27
2018-04-26T09:20:59.979Z,12.17
2018-04-26T09:23:29.138Z,14.50
2018-04-26T09:25:58.325Z,13.37
2018-04-26T09:28:27.476Z,11.53
2018-04-26T09:30:56.599Z,12.20
2018-04-26T09:33:25.749Z,12.33
2018-04-26T09:35:54.913Z,12.37
2018-04-26T09:38:24.027Z,12.83
2018-04-26T09:40:53.172Z,13.13
2018-04-26T09:43:22.283Z,12.30
2018-04-26T09:45:51.409Z,12.23
2018-04-26T09:48:20.589Z,12.50
2018-04-26T09:50:49.723Z,13.10
2018-04-26T09:53:18.834Z,17.53
2018-04-26T09:55:48.022Z,17.10
2018-04-26T09:58:17.160Z,11.23
2018-04-26T10:00:46.268Z,9.87
2018-04-26T10:03:15.376Z,9.77
2018-04-26T10:05:50.186Z,8.90
2018-04-26T10:08:19.324Z,9.50
2018-04-26T10:10:48.466Z,9.00
2018-04-26T10:13:17.628Z,9.67
2018-04-26T10:15:46.743Z,9.90
2018-04-26T10:18:15.885Z,11.80
2018-04-26T10:20:45.027Z,9.83
2018-04-26T10:23:14.179Z,12.40
2018-04-26T10:25:43.289Z,11.67
2018-04-26T10:28:12.400Z,12.00
2018-04-26T10:30:41.576Z,12.20
2018-04-26T10:33:10.716Z,12.47
2018-04-26T10:35:39.838Z,10.83
2018-04-26T10:38:09.037Z,10.27
2018-04-26T10:40:38.175Z,11.00
2018-04-26T10:43:07.333Z,10.40
2018-04-26T10:45:36.468Z,21.33
2018-04-26T10:48:05.605Z,11.63
2018-04-26T10:50:34.769Z,28.80
2018-04-26T10:53:03.953Z,11.57
2018-04-26T10:55:33.025Z,10.37
2018-04-26T10:58:02.235Z,12.00
2018-04-26T11:00:31.355Z,10.90
2018-04-26T11:03:00.534Z,12.03
2018-04-26T11:05:29.646Z,10.83
2018-04-26T11:07:58.816Z,11.60
2018-04-26T11:10:27.932Z,11.90
2018-04-26T11:12:57.080Z,14.00
2018-04-26T11:15:26.292Z,13.33
2018-04-26T11:17:55.433Z,11.50
2018-04-26T11:20:25.117Z,13.60
2018-04-26T11:22:54.261Z,11.07
2018-04-26T11:25:23.397Z,12.87
2018-04-26T11:27:52.552Z,11.63
2018-04-26T11:30:21.721Z,9.20
2018-04-26T11:32:50.898Z,8.93
2018-04-26T11:35:20.035Z,10.90
2018-04-26T11:37:49.150Z,10.30
2018-04-26T11:40:18.325Z,9.37
2018-04-26T11:42:47.471Z,9.63
2018-04-26T11:45:16.588Z,9.60
2018-04-26T11:47:45.722Z,11.10
2018-04-26T11:50:14.893Z,10.00
2018-04-26T11:52:44.036Z,9.43
2018-04-26T11:55:13.196Z,12.40
2018-04-26T11:57:42.352Z,25.73
2018-04-26T12:00:11.498Z,17.73
2018-04-26T12:02:40.717Z,11.03
2018-04-26T12:05:09.758Z,11.57
2018-04-26T12:07:39.023Z,10.80
2018-04-26T12:10:08.200Z,11.07
2018-04-26T12:12:37.436Z,17.30
2018-04-26T12:15:06.620Z,11.67
2018-04-26T12:17:35.826Z,11.00
2018-04-26T12:20:04.945Z,10.77
2018-04-26T12:22:34.074Z,11.30
2018-04-26T12:25:03.252Z,57.57
2018-04-26T12:27:32.384Z,11.37
2018-04-26T12:30:01.498Z,13.77
2018-04-26T12:32:30.652Z,11.70
2018-04-26T12:34:59.797Z,10.90
2018-04-26T12:37:28.943Z,10.10
2018-04-26T12:39:58.093Z,9.60
2018-04-26T12:42:27.311Z,10.17
2018-04-26T12:44:56.363Z,8.93
2018-04-26T12:47:25.535Z,15.37
2018-04-26T12:49:54.659Z,63.70
2018-04-26T12:52:23.774Z,26.27
2018-04-26T12:54:52.962Z,10.27
2018-04-26T12:57:22.504Z,11.97
2018-04-26T12:59:51.632Z,10.60
2018-04-26T13:02:20.809Z,11.33
2018-04-26T13:04:49.962Z,10.90
2018-04-26T13:07:19.085Z,54.50
2018-04-26T13:09:48.240Z,10.87
2018-04-26T13:12:17.412Z,10.70
2018-04-26T13:14:46.547Z,10.40
2018-04-26T13:17:15.794Z,10.17
2018-04-26T13:19:44.867Z,39.23
2018-04-26T13:22:14.032Z,15.77
2018-04-26T13:24:43.164Z,15.30
2018-04-26T13:27:12.326Z,11.77
2018-04-26T13:29:41.444Z,11.40
2018-04-26T13:32:10.584Z,12.17
2018-04-26T13:34:39.721Z,11.13
2018-04-26T13:37:08.885Z,11.00
2018-04-26T13:39:38.049Z,10.10
2018-04-26T13:42:07.155Z,9.80
2018-04-26T13:44:36.325Z,10.17
2018-04-26T13:47:05.488Z,18.13
2018-04-26T13:49:34.600Z,11.50
2018-04-26T13:52:03.790Z,9.47
2018-04-26T13:54:32.921Z,10.10
2018-04-26T13:57:02.058Z,13.30
2018-04-26T13:59:31.231Z,27.33
2018-04-26T14:02:00.358Z,14.70
2018-04-26T14:04:29.467Z,13.83
2018-04-26T14:06:58.618Z,11.27
2018-04-26T14:09:27.767Z,10.90
2018-04-26T14:11:57.181Z,10.60
2018-04-26T14:14:26.342Z,10.27
2018-04-26T14:16:55.469Z,10.90
2018-04-26T14:19:24.605Z,10.60
2018-04-26T14:21:53.748Z,9.10
2018-04-26T14:24:22.896Z,9.00
2018-04-26T14:26:52.106Z,31.37
2018-04-26T14:29:21.290Z,10.03
2018-04-26T14:31:50.703Z,9.93
2018-04-26T14:34:19.820Z,10.53
2018-04-26T14:36:48.977Z,10.30
2018-04-26T14:39:18.127Z,10.27
2018-04-26T14:41:47.279Z,24.20
2018-04-26T14:44:16.419Z,12.40
2018-04-26T14:46:45.568Z,10.00
2018-04-26T14:49:14.757Z,8.93
2018-04-26T14:51:43.899Z,9.43
2018-04-26T14:54:13.027Z,43.17
2018-04-26T14:56:42.171Z,10.00
2018-04-26T14:59:11.326Z,10.87
2018-04-26T15:01:40.468Z,10.07
2018-04-26T15:04:09.699Z,10.57
2018-04-26T15:06:38.844Z,10.10
2018-04-26T15:09:07.960Z,10.50
2018-04-26T15:11:38.005Z,10.03
2018-04-26T15:14:07.257Z,9.80
2018-04-26T15:16:36.397Z,12.20
2018-04-26T15:19:05.555Z,10.20
2018-04-26T15:21:34.759Z,11.87
2018-04-26T15:24:03.917Z,10.90
2018-04-26T15:26:33.065Z,10.90
2018-04-26T15:29:02.221Z,10.80
2018-04-26T15:31:31.360Z,9.83
2018-04-26T15:34:00.659Z,9.90
2018-04-26T15:36:29.803Z,14.77
2018-04-26T15:38:58.952Z,8.93
2018-04-26T15:41:28.065Z,17.10
2018-04-26T15:43:57.196Z,9.37
2018-04-26T15:46:26.342Z,13.00
2018-04-26T15:48:55.484Z,10.90
2018-04-26T15:51:24.668Z,9.90
2018-04-26T15:53:59.776Z,10.10
2018-04-26T15:56:34.745Z,10.30
2018-04-26T15:59:09.916Z,11.33
2018-04-26T16:04:51.970Z,10.70
2018-04-26T16:07:42.681Z,11.10
2018-04-26T16:10:17.782Z,15.97
2018-04-26T16:12:58.734Z,13.10
2018-04-26T16:15:33.912Z,10.67
2018-04-26T16:18:28.914Z,11.43
2018-04-26T16:21:09.622Z,10.23
2018-04-26T16:23:50.668Z,10.83
2018-04-26T16:26:25.589Z,10.40
2018-04-26T16:29:20.699Z,12.30
2018-04-26T16:32:01.653Z,11.47
2018-04-26T16:34:42.793Z,15.30
2018-04-26T16:37:17.953Z,10.07
2018-04-26T16:39:47.114Z,10.70
2018-04-26T16:42:16.252Z,10.70
2018-04-26T16:44:45.377Z,10.17
2018-04-26T16:47:14.532Z,11.00
2018-04-26T16:49:43.679Z,10.40
2018-04-26T16:52:12.983Z,10.20
2018-04-26T16:54:42.139Z,13.57
2018-04-26T16:57:11.282Z,10.73
2018-04-26T16:59:40.418Z,11.40
2018-04-26T17:02:09.583Z,11.00
2018-04-26T17:04:38.927Z,10.30
2018-04-26T17:07:07.984Z,9.70
2018-04-26T17:09:37.071Z,9.60
2018-04-26T17:12:06.215Z,9.47
2018-04-26T17:14:35.364Z,9.83
2018-04-26T17:17:04.536Z,9.63
2018-04-26T17:19:33.702Z,10.60
2018-04-26T17:22:02.817Z,10.00
2018-04-26T17:24:31.974Z,10.27
2018-04-26T17:27:01.118Z,10.77
2018-04-26T17:29:30.368Z,10.57
2018-04-26T17:31:59.592Z,11.17
2018-04-26T17:34:28.740Z,11.00
2018-04-26T17:36:57.869Z,10.23
2018-04-26T17:39:27.021Z,10.30
2018-04-26T17:41:56.185Z,10.47
2018-04-26T17:44:25.336Z,10.17
2018-04-26T17:46:54.499Z,10.13
2018-04-26T17:49:23.653Z,10.10
2018-04-26T17:51:52.789Z,9.83
2018-04-26T17:54:21.938Z,10.00
2018-04-26T17:56:51.107Z,10.43
2018-04-26T17:59:20.232Z,9.90
2018-04-26T18:01:49.356Z,9.50
2018-04-26T18:04:18.520Z,9.90
2018-04-26T18:06:47.641Z,9.47
2018-04-26T18:09:16.759Z,8.93
2018-04-26T18:11:45.911Z,8.60
2018-04-26T18:14:15.044Z,9.03
2018-04-26T18:16:44.223Z,9.30
2018-04-26T18:19:13.379Z,9.27
2018-04-26T18:21:42.702Z,9.10
2018-04-26T18:24:11.869Z,9.30
2018-04-26T18:26:40.982Z,8.47
2018-04-26T18:29:10.275Z,8.50
2018-04-26T18:31:39.584Z,8.60
2018-04-26T18:34:08.736Z,9.00
2018-04-26T18:36:37.874Z,9.20
2018-04-26T18:39:07.065Z,8.07
2018-04-26T18:41:36.207Z,8.30
2018-04-26T18:44:05.351Z,8.80
2018-04-26T18:46:34.506Z,8.60
2018-04-26T18:49:03.672Z,8.63
2018-04-26T18:51:32.816Z,8.83
2018-04-26T18:54:01.961Z,9.17
2018-04-26T18:56:31.129Z,9.70
2018-04-26T18:59:00.265Z,9.30
2018-04-26T19:01:29.419Z,9.30
2018-04-26T19:03:58.577Z,9.70
2018-04-26T19:06:27.725Z,9.80
2018-04-26T19:08:56.868Z,10.27
2018-04-26T19:11:26.049Z,10.10
2018-04-26T19:13:55.190Z,10.43
2018-04-26T19:16:24.310Z,11.50
2018-04-26T19:18:53.473Z,10.80
2018-04-26T19:21:22.605Z,10.40
2018-04-26T19:23:51.756Z,10.70
2018-04-26T19:26:20.907Z,9.90
2018-04-26T19:28:50.029Z,10.20
2018-04-26T19:31:19.162Z,10.33
2018-04-26T19:33:48.325Z,10.17
2018-04-26T19:36:17.471Z,10.50
2018-04-26T19:38:46.612Z,10.33
2018-04-26T19:41:15.771Z,10.40
2018-04-26T19:43:45.308Z,10.07
2018-04-26T19:46:14.449Z,10.20
2018-04-26T19:48:43.576Z,9.70
2018-04-26T19:51:12.712Z,9.60
2018-04-26T19:53:41.841Z,9.80
2018-04-26T19:56:10.987Z,9.43
2018-04-26T19:58:40.160Z,10.30
2018-04-26T20:01:09.303Z,10.43
2018-04-26T20:03:38.451Z,10.13
2018-04-26T20:06:07.612Z,9.90
2018-04-26T20:08:36.760Z,9.53
2018-04-26T20:11:05.860Z,9.73
2018-04-26T20:13:35.000Z,10.20
2018-04-26T20:16:04.128Z,10.30
2018-04-26T20:18:33.269Z,10.10
2018-04-26T20:21:02.436Z,10.00
2018-04-26T20:23:31.602Z,9.93
2018-04-26T20:26:00.758Z,9.90
2018-04-26T20:28:29.911Z,9.80
2018-04-26T20:30:59.113Z,9.77
2018-04-26T20:33:28.385Z,10.40
2018-04-26T20:35:57.492Z,9.70
2018-04-26T20:38:26.691Z,9.90
2018-04-26T20:40:55.831Z,10.13
2018-04-26T20:43:24.994Z,9.90
2018-04-26T20:45:54.169Z,10.40
2018-04-26T20:48:29.292Z,9.83
2018-04-26T20:50:58.436Z,10.13
2018-04-26T20:53:27.560Z,11.63
2018-04-26T20:55:56.712Z,10.77
2018-04-26T20:58:25.877Z,10.70
2018-04-26T21:00:55.576Z,10.80
2018-04-26T21:03:24.660Z,10.80
2018-04-26T21:05:53.798Z,11.60
2018-04-26T21:08:23.031Z,11.40
2018-04-26T21:10:52.113Z,10.17
2018-04-26T21:13:21.259Z,10.67
2018-04-26T21:15:50.418Z,10.63
2018-04-26T21:18:19.559Z,11.30
2018-04-26T21:20:48.716Z,12.47
2018-04-26T21:23:18.059Z,11.90
2018-04-26T21:25:47.208Z,12.03
2018-04-26T21:28:16.376Z,11.90
2018-04-26T21:30:45.484Z,12.30
2018-04-26T21:33:14.621Z,11.10
2018-04-26T21:35:43.807Z,11.57
2018-04-26T21:38:12.919Z,12.00
2018-04-26T21:40:42.032Z,12.80
2018-04-26T21:43:11.204Z,12.20
2018-04-26T21:45:40.373Z,12.60
2018-04-26T21:48:09.519Z,12.13
2018-04-26T21:50:44.383Z,11.33
2018-04-26T21:53:19.341Z,11.73
2018-04-26T21:55:54.328Z,12.67
2018-04-26T21:58:29.132Z,11.70
2018-04-26T22:01:04.099Z,12.17
2018-04-26T22:03:49.989Z,11.47
2018-04-26T22:06:19.155Z,12.80
2018-04-26T22:08:48.277Z,13.10
2018-04-26T22:11:17.419Z,11.90
2018-04-26T22:13:46.592Z,12.60
2018-04-26T22:16:15.752Z,11.70
2018-04-26T22:18:44.881Z,12.00
2018-04-26T22:21:14.022Z,12.40
2018-04-26T22:23:43.215Z,11.50
2018-04-26T22:26:12.339Z,12.50
2018-04-26T22:28:41.445Z,13.23
2018-04-26T22:31:10.754Z,12.60
2018-04-26T22:33:39.883Z,12.30
2018-04-26T22:36:08.997Z,12.43
2018-04-26T22:38:38.276Z,12.43
2018-04-26T22:41:07.399Z,12.20
2018-04-26T22:43:36.524Z,12.80
2018-04-26T22:46:05.662Z,11.63
2018-04-26T22:48:34.771Z,12.20
2018-04-26T22:51:04.095Z,11.73
2018-04-26T22:53:33.202Z,12.47
2018-04-26T22:56:02.349Z,13.30
2018-04-26T22:58:32.220Z,13.23
2018-04-26T23:01:01.337Z,13.73
2018-04-26T23:03:30.462Z,13.57
2018-04-26T23:05:59.580Z,13.90
2018-04-26T23:08:28.725Z,14.17
2018-04-26T23:10:57.858Z,15.00
2018-04-26T23:13:26.988Z,14.47
2018-04-26T23:15:56.119Z,14.30
2018-04-26T23:18:25.265Z,14.13
2018-04-26T23:20:54.401Z,14.10
2018-04-26T23:23:23.709Z,14.70
2018-04-26T23:25:52.851Z,14.37
2018-04-26T23:28:21.989Z,14.27
2018-04-26T23:30:51.124Z,14.63
2018-04-26T23:33:20.253Z,14.03
2018-04-26T23:35:49.395Z,15.20
2018-04-26T23:38:18.527Z,13.97
2018-04-26T23:40:47.667Z,13.90
2018-04-26T23:43:16.781Z,16.20
2018-04-26T23:45:45.935Z,15.33
2018-04-26T23:48:15.072Z,14.30
2018-04-26T23:50:44.206Z,14.60
2018-04-26T23:53:13.417Z,15.43
2018-04-26T23:55:42.555Z,13.93
2018-04-26T23:58:11.686Z,15.40
